createdAt,value
2022-10-11T00:00:37.184Z,7.72
2022-10-11T00:03:39.581Z,8.65
2022-10-11T00:06:43.623Z,7.55
2022-10-11T00:09:46.819Z,6.25
2022-10-11T00:12:49.154Z,7.62
2022-10-11T00:15:51.497Z,7.07
2022-10-11T00:18:53.611Z,10.63
2022-10-11T00:21:56.026Z,7.82
2022-10-11T00:24:59.122Z,8.70
2022-10-11T00:28:01.579Z,9.35
2022-10-11T00:31:14.814Z,9.68
2022-10-11T00:34:18.115Z,6.97
2022-10-11T00:37:20.562Z,7.50
2022-10-11T00:40:22.904Z,7.32
2022-10-11T00:43:27.864Z,8.32
2022-10-11T00:46:32.064Z,7.95
2022-10-11T00:49:38.457Z,8.52
2022-10-11T00:52:43.202Z,7.70
2022-10-11T00:55:54.915Z,9.55
2022-10-11T00:58:58.831Z,7.28
2022-10-11T01:02:00.974Z,9.68
2022-10-11T01:05:28.845Z,20.00
2022-10-11T01:08:27.681Z,11.38
2022-10-11T01:11:31.143Z,9.75
2022-10-11T01:14:49.134Z,7.78
2022-10-11T01:18:07.995Z,8.43
2022-10-11T01:21:22.530Z,6.87
2022-10-11T01:24:41.442Z,8.80
2022-10-11T01:28:01.965Z,6.85
2022-10-11T01:31:12.889Z,7.20
2022-10-11T01:34:35.548Z,8.68
2022-10-11T01:37:43.967Z,12.88
2022-10-11T01:40:51.295Z,8.45
2022-10-11T01:43:59.298Z,10.18
2022-10-11T01:47:01.379Z,7.90
2022-10-11T01:50:04.033Z,8.98
2022-10-11T01:53:36.067Z,9.40
2022-10-11T01:56:57.056Z,9.35
2022-10-11T02:00:17.397Z,10.73
2022-10-11T02:03:31.993Z,16.35
2022-10-11T02:06:56.728Z,6.97
2022-10-11T02:10:21.264Z,8.57
2022-10-11T02:13:30.241Z,8.15
2022-10-11T02:16:39.706Z,7.65
2022-10-11T02:19:46.657Z,7.47
2022-10-11T02:22:53.567Z,7.32
2022-10-11T02:25:57.578Z,9.48
2022-10-11T02:29:04.551Z,8.02
2022-10-11T02:32:08.208Z,10.25
2022-10-11T02:35:11.749Z,8.88
2022-10-11T02:38:30.241Z,10.60
2022-10-11T02:41:38.426Z,11.52
2022-10-11T02:44:45.429Z,6.95
2022-10-11T02:47:48.262Z,8.32
2022-10-11T02:50:50.870Z,11.43
2022-10-11T02:53:53.554Z,6.82
2022-10-11T02:56:55.603Z,8.05
2022-10-11T02:59:57.939Z,10.63
2022-10-11T03:03:00.106Z,9.60
2022-10-11T03:06:04.337Z,7.00
2022-10-11T03:09:06.591Z,9.18
2022-10-11T03:12:08.948Z,10.95
2022-10-11T03:15:11.132Z,11.32
2022-10-11T03:18:13.458Z,10.18
2022-10-11T03:21:15.549Z,10.35
2022-10-11T03:24:17.958Z,11.85
2022-10-11T03:27:20.050Z,8.93
2022-10-11T03:30:22.413Z,8.68
2022-10-11T03:33:24.501Z,11.32
2022-10-11T03:36:26.831Z,8.98
2022-10-11T03:39:28.883Z,7.03
2022-10-11T03:42:31.223Z,8.82
2022-10-11T03:45:33.336Z,8.95
2022-10-11T03:48:35.775Z,8.98
2022-10-11T03:51:37.879Z,6.97
2022-10-11T03:54:40.267Z,10.60
2022-10-11T03:57:42.460Z,8.20
2022-10-11T04:00:44.774Z,8.20
2022-10-11T04:03:47.107Z,8.85
2022-10-11T04:06:49.169Z,7.87
2022-10-11T04:09:52.650Z,9.05
2022-10-11T04:12:54.693Z,12.85
2022-10-11T04:15:57.041Z,10.70
2022-10-11T04:18:59.235Z,11.35
2022-10-11T04:22:01.566Z,10.90
2022-10-11T04:25:04.223Z,11.43
2022-10-11T04:28:08.038Z,9.00
2022-10-11T04:31:10.202Z,8.30
2022-10-11T04:34:12.558Z,9.15
2022-10-11T04:37:14.637Z,11.55
2022-10-11T04:40:17.043Z,9.80
2022-10-11T04:43:19.355Z,11.77
2022-10-11T04:46:21.793Z,9.50
2022-10-11T04:49:24.353Z,9.07
2022-10-11T04:52:26.694Z,9.10
2022-10-11T04:55:29.517Z,11.75
2022-10-11T04:58:33.757Z,11.63
2022-10-11T05:01:35.919Z,16.98
2022-10-11T05:04:38.341Z,15.45
2022-10-11T05:07:40.398Z,17.10
2022-10-11T05:10:43.012Z,12.65
2022-10-11T05:13:48.628Z,12.95
2022-10-11T05:16:51.000Z,12.02
2022-10-11T05:19:53.049Z,16.12
2022-10-11T05:22:55.413Z,13.07
2022-10-11T05:25:58.075Z,12.95
2022-10-11T05:29:00.554Z,10.02
2022-10-11T05:32:02.702Z,9.13
2022-10-11T05:35:05.606Z,11.12
2022-10-11T05:38:08.280Z,7.05
2022-10-11T05:41:13.848Z,8.70
2022-10-11T05:44:15.949Z,11.07
2022-10-11T05:47:18.251Z,14.70
2022-10-11T05:50:24.152Z,11.40
2022-10-11T05:53:26.890Z,10.05
2022-10-11T05:56:28.952Z,14.13
2022-10-11T05:59:31.323Z,11.38
2022-10-11T06:02:34.020Z,8.90
2022-10-11T06:05:36.423Z,16.52
2022-10-11T06:08:38.531Z,12.52
2022-10-11T06:11:43.768Z,11.70
2022-10-11T06:14:45.905Z,13.85
2022-10-11T06:17:48.330Z,11.70
2022-10-11T06:20:50.397Z,11.10
2022-10-11T06:23:58.354Z,8.07
2022-10-11T06:27:03.195Z,13.45
2022-10-11T06:30:07.265Z,14.73
2022-10-11T06:33:09.381Z,12.88
2022-10-11T06:36:13.261Z,11.32
2022-10-11T06:39:15.361Z,8.85
2022-10-11T06:42:17.762Z,12.93
2022-10-11T06:45:19.885Z,9.95
2022-10-11T06:48:22.214Z,11.85
2022-10-11T06:51:25.160Z,7.97
2022-10-11T06:54:27.501Z,10.90
2022-10-11T06:57:29.758Z,9.20
2022-10-11T07:00:32.189Z,12.35
2022-10-11T07:03:35.058Z,10.57
2022-10-11T07:06:40.201Z,10.98
2022-10-11T07:09:42.324Z,14.48
2022-10-11T07:12:44.901Z,16.05
2022-10-11T07:15:46.971Z,12.88
2022-10-11T07:18:57.257Z,8.63
2022-10-11T07:22:01.860Z,14.48
2022-10-11T07:25:04.705Z,10.38
2022-10-11T07:28:06.773Z,8.63
2022-10-11T07:31:15.156Z,8.23
2022-10-11T07:34:18.049Z,13.45
2022-10-11T07:37:20.457Z,10.35
2022-10-11T07:40:22.565Z,8.95
2022-10-11T07:43:25.274Z,9.48
2022-10-11T07:46:27.446Z,11.50
2022-10-11T07:49:29.791Z,12.25
2022-10-11T07:52:31.896Z,10.10
2022-10-11T07:55:40.002Z,11.95
2022-10-11T07:58:42.667Z,10.88
2022-10-11T08:01:45.385Z,12.20
2022-10-11T08:04:47.829Z,12.35
2022-10-11T08:07:49.941Z,9.13
2022-10-11T08:10:52.406Z,12.75
2022-10-11T08:13:54.699Z,9.80
2022-10-11T08:16:57.190Z,12.75
2022-10-11T08:20:01.340Z,9.63
2022-10-11T08:23:03.994Z,10.45
2022-10-11T08:26:07.240Z,11.30
2022-10-11T08:29:10.157Z,11.30
2022-10-11T08:32:12.324Z,15.63
2022-10-11T08:35:14.800Z,16.23
2022-10-11T08:38:17.959Z,8.88
2022-10-11T08:41:32.086Z,8.88
2022-10-11T08:45:16.189Z,15.93
2022-10-11T08:48:31.376Z,12.65
2022-10-11T08:51:59.983Z,13.75
2022-10-11T08:55:07.881Z,15.98
2022-10-11T08:58:13.902Z,17.10
2022-10-11T09:01:23.754Z,15.23
2022-10-11T09:04:26.022Z,13.35
2022-10-11T09:07:37.416Z,18.52
2022-10-11T09:10:59.672Z,12.70
2022-10-11T09:14:06.670Z,15.65
2022-10-11T09:17:17.645Z,16.12
2022-10-11T09:20:37.095Z,11.68
2022-10-11T09:23:42.186Z,21.83
2022-10-11T09:27:01.449Z,17.65
2022-10-11T09:30:11.756Z,14.50
2022-10-11T09:33:28.353Z,15.95
2022-10-11T09:36:44.826Z,16.00
2022-10-11T09:40:11.718Z,12.90
2022-10-11T09:43:15.156Z,17.92
2022-10-11T09:46:32.494Z,32.90
2022-10-11T09:49:42.505Z,14.50
2022-10-11T09:52:53.660Z,20.25
2022-10-11T09:56:04.007Z,18.12
2022-10-11T09:59:27.211Z,21.33
2022-10-11T10:02:39.224Z,20.35
2022-10-11T10:05:41.664Z,15.15
2022-10-11T10:08:46.789Z,15.27
2022-10-11T10:11:49.355Z,17.50
2022-10-11T10:15:16.148Z,16.85
2022-10-11T10:18:23.640Z,18.30
2022-10-11T10:21:36.676Z,16.95
2022-10-11T10:24:41.544Z,17.62
2022-10-11T10:27:57.497Z,17.20
2022-10-11T10:30:59.873Z,15.73
2022-10-11T10:34:02.776Z,18.23
2022-10-11T10:37:28.066Z,15.13
2022-10-11T10:40:47.354Z,19.00
2022-10-11T10:44:00.165Z,18.65
2022-10-11T10:47:19.463Z,25.48
2022-10-11T10:50:55.738Z,16.90
2022-10-11T10:54:10.320Z,20.52
2022-10-11T10:57:48.098Z,21.35
2022-10-11T11:01:02.311Z,15.68
2022-10-11T11:04:14.631Z,14.32
2022-10-11T11:07:44.058Z,19.12
2022-10-11T11:11:22.043Z,16.93
2022-10-11T11:14:24.037Z,12.98
2022-10-11T11:17:49.645Z,20.58
2022-10-11T11:21:41.198Z,14.93
2022-10-11T11:24:49.870Z,18.98
2022-10-11T11:28:16.913Z,17.62
2022-10-11T11:31:39.002Z,17.98
2022-10-11T11:34:46.915Z,18.23
2022-10-11T11:37:58.567Z,16.87
2022-10-11T11:41:10.133Z,16.17
2022-10-11T11:44:32.009Z,19.50
2022-10-11T11:47:38.527Z,16.85
2022-10-11T11:50:45.890Z,18.40
2022-10-11T11:54:06.051Z,17.70
2022-10-11T11:57:17.409Z,17.65
2022-10-11T12:00:32.463Z,18.90
2022-10-11T12:03:41.744Z,18.25
2022-10-11T12:07:11.161Z,19.42
2022-10-11T12:10:25.178Z,18.60
2022-10-11T12:13:40.774Z,21.62
2022-10-11T12:17:10.578Z,17.70
2022-10-11T12:20:25.929Z,20.92
2022-10-11T12:23:28.240Z,15.52
2022-10-11T12:26:56.426Z,19.15
2022-10-11T12:29:58.799Z,19.92
2022-10-11T12:33:18.127Z,18.00
2022-10-11T12:36:52.978Z,18.97
2022-10-11T12:39:59.970Z,19.17
2022-10-11T12:43:14.207Z,21.50
2022-10-11T12:46:28.522Z,25.52
2022-10-11T12:49:33.913Z,20.08
2022-10-11T12:52:52.099Z,18.50
2022-10-11T12:56:00.866Z,20.42
2022-10-11T12:59:06.266Z,17.25
2022-10-11T13:02:36.241Z,18.12
2022-10-11T13:05:45.511Z,21.87
2022-10-11T13:08:54.680Z,19.37
2022-10-11T13:12:06.374Z,21.08
2022-10-11T13:15:14.742Z,16.73
2022-10-11T13:18:18.231Z,17.30
2022-10-11T13:21:26.950Z,19.20
2022-10-11T13:24:39.034Z,17.83
2022-10-11T13:27:41.702Z,16.60
2022-10-11T13:30:46.920Z,17.05
2022-10-11T13:33:54.801Z,22.37
2022-10-11T13:36:58.537Z,19.55
2022-10-11T13:40:00.952Z,21.58
2022-10-11T13:43:05.625Z,23.75
2022-10-11T13:46:17.363Z,18.23
2022-10-11T13:49:29.387Z,18.98
2022-10-11T13:52:32.316Z,19.80
2022-10-11T13:55:36.212Z,19.52
2022-10-11T13:58:46.691Z,21.52
2022-10-11T14:01:50.685Z,14.80
2022-10-11T14:04:53.480Z,16.98
2022-10-11T14:07:57.439Z,16.27
2022-10-11T14:11:05.932Z,20.83
2022-10-11T14:14:38.877Z,17.62
2022-10-11T14:17:44.098Z,20.60
2022-10-11T14:20:46.157Z,18.83
2022-10-11T14:23:52.342Z,20.23
2022-10-11T14:26:56.271Z,21.58
2022-10-11T14:30:25.012Z,16.17
2022-10-11T14:33:21.125Z,14.85
2022-10-11T14:36:24.023Z,17.60
2022-10-11T14:39:28.351Z,18.52
2022-10-11T14:42:30.683Z,16.87
2022-10-11T14:45:32.805Z,15.35
2022-10-11T14:48:54.410Z,16.48
2022-10-11T14:51:59.068Z,20.08
2022-10-11T14:55:01.884Z,18.42
2022-10-11T14:58:05.601Z,16.02
2022-10-11T15:01:12.715Z,16.33
2022-10-11T15:04:15.377Z,18.40
2022-10-11T15:07:17.741Z,14.23
2022-10-11T15:10:33.459Z,18.92
2022-10-11T15:13:36.070Z,19.83
2022-10-11T15:16:40.145Z,16.58
2022-10-11T15:19:42.497Z,11.60
2022-10-11T15:22:44.588Z,16.83
2022-10-11T15:25:47.167Z,15.55
2022-10-11T15:28:50.470Z,17.55
2022-10-11T15:31:52.821Z,15.75
2022-10-11T15:34:54.898Z,15.65
2022-10-11T15:37:59.516Z,17.90
2022-10-11T15:41:01.641Z,14.48
2022-10-11T15:44:04.047Z,13.50
2022-10-11T15:47:06.138Z,15.68
2022-10-11T15:50:24.082Z,19.73
2022-10-11T15:53:30.889Z,15.80
2022-10-11T15:56:33.959Z,15.48
2022-10-11T15:59:36.162Z,21.12
2022-10-11T16:02:39.197Z,17.12
2022-10-11T16:05:42.182Z,14.57
2022-10-11T16:08:44.917Z,15.07
2022-10-11T16:11:47.274Z,18.75
2022-10-11T16:14:49.358Z,24.05
2022-10-11T16:17:51.820Z,21.35
2022-10-11T16:20:54.118Z,14.70
2022-10-11T16:23:56.470Z,19.12
2022-10-11T16:26:58.562Z,15.90
2022-10-11T16:30:01.170Z,16.55
2022-10-11T16:33:03.342Z,15.80
2022-10-11T16:36:26.438Z,15.85
2022-10-11T16:39:28.611Z,19.30
2022-10-11T16:42:31.178Z,22.67
2022-10-11T16:45:33.948Z,19.42
2022-10-11T16:48:36.358Z,15.98
2022-10-11T16:51:38.455Z,19.48
2022-10-11T16:54:47.504Z,19.40
2022-10-11T16:57:49.590Z,21.65
2022-10-11T17:00:52.119Z,21.00
2022-10-11T17:03:55.609Z,22.87
2022-10-11T17:06:58.193Z,20.35
2022-10-11T17:10:01.085Z,21.27
2022-10-11T17:13:03.425Z,26.25
2022-10-11T17:16:06.140Z,21.75
2022-10-11T17:19:14.150Z,22.85
2022-10-11T17:22:18.626Z,28.70
2022-10-11T17:25:21.482Z,19.08
2022-10-11T17:28:23.819Z,23.62
2022-10-11T17:31:27.955Z,20.55
2022-10-11T17:34:30.457Z,20.27
2022-10-11T17:37:34.124Z,24.05
2022-10-11T17:40:36.205Z,25.30
2022-10-11T17:43:39.219Z,22.27
2022-10-11T17:46:41.275Z,23.77
2022-10-11T17:49:43.642Z,20.48
2022-10-11T17:52:45.889Z,23.27
2022-10-11T17:55:53.341Z,24.85
2022-10-11T17:58:57.197Z,22.15
2022-10-11T18:01:59.566Z,23.38
2022-10-11T18:05:01.888Z,22.77
2022-10-11T18:08:03.999Z,23.48
2022-10-11T18:11:11.881Z,31.25
2022-10-11T18:14:13.966Z,28.45
2022-10-11T18:17:16.878Z,27.15
2022-10-11T18:20:18.996Z,26.62
2022-10-11T18:23:21.363Z,23.92
2022-10-11T18:26:27.991Z,25.10
2022-10-11T18:29:32.755Z,27.30
2022-10-11T18:32:35.343Z,25.02
2022-10-11T18:35:38.177Z,24.67
2022-10-11T18:38:46.027Z,26.67
2022-10-11T18:41:48.832Z,29.08
2022-10-11T18:44:50.911Z,26.45
2022-10-11T18:47:53.245Z,24.05
2022-10-11T18:51:12.334Z,25.52
2022-10-11T18:54:18.429Z,28.12
2022-10-11T18:57:24.273Z,29.87
2022-10-11T19:00:41.965Z,25.00
2022-10-11T19:03:46.018Z,28.80
2022-10-11T19:06:49.388Z,30.10
2022-10-11T19:09:51.520Z,27.37
2022-10-11T19:12:53.932Z,32.35
2022-10-11T19:15:56.031Z,30.62
2022-10-11T19:18:59.079Z,29.70
2022-10-11T19:22:03.271Z,26.17
2022-10-11T19:25:06.231Z,29.37
2022-10-11T19:28:12.332Z,30.33
2022-10-11T19:31:17.328Z,27.40
2022-10-11T19:34:20.299Z,28.10
2022-10-11T19:37:22.863Z,30.77
2022-10-11T19:40:24.985Z,35.33
2022-10-11T19:43:27.633Z,28.95
2022-10-11T19:46:50.386Z,31.62
2022-10-11T19:49:52.136Z,36.72
2022-10-11T19:52:54.221Z,33.70
2022-10-11T19:56:00.264Z,30.83
2022-10-11T19:59:02.970Z,32.17
2022-10-11T20:02:05.405Z,31.52
2022-10-11T20:05:08.097Z,29.37
2022-10-11T20:08:10.185Z,28.62
2022-10-11T20:11:13.158Z,25.77
2022-10-11T20:14:15.232Z,33.53
2022-10-11T20:17:17.622Z,28.98
2022-10-11T20:20:19.949Z,28.85
2022-10-11T20:23:27.361Z,29.67
2022-10-11T20:26:30.763Z,34.92
2022-10-11T20:29:33.178Z,24.83
2022-10-11T20:32:35.328Z,28.02
2022-10-11T20:35:37.670Z,25.37
2022-10-11T20:38:42.558Z,24.40
2022-10-11T20:41:44.906Z,24.75
2022-10-11T20:44:48.578Z,30.00
2022-10-11T20:47:53.023Z,28.83
2022-10-11T20:50:55.251Z,31.27
2022-10-11T20:53:58.887Z,28.98
2022-10-11T20:57:00.946Z,30.23
2022-10-11T21:00:04.626Z,29.58
2022-10-11T21:03:07.006Z,29.67
2022-10-11T21:06:09.671Z,29.58
2022-10-11T21:09:14.063Z,28.42
2022-10-11T21:12:18.777Z,29.40
2022-10-11T21:15:20.852Z,31.37
2022-10-11T21:18:23.203Z,29.25
2022-10-11T21:21:26.311Z,29.42
2022-10-11T21:24:28.645Z,29.87
2022-10-11T21:27:30.799Z,28.42
2022-10-11T21:30:34.055Z,32.45
2022-10-11T21:33:36.695Z,28.15
2022-10-11T21:36:39.049Z,25.73
2022-10-11T21:39:41.175Z,28.73
2022-10-11T21:42:43.550Z,29.52
2022-10-11T21:45:46.059Z,32.28
2022-10-11T21:48:50.033Z,26.98
2022-10-11T21:51:52.097Z,27.37
2022-10-11T21:54:54.474Z,30.55
2022-10-11T21:57:56.530Z,28.33
2022-10-11T22:00:59.069Z,28.70
2022-10-11T22:04:01.417Z,32.05
2022-10-11T22:07:03.489Z,27.55
2022-10-11T22:10:06.159Z,27.35
2022-10-11T22:13:08.554Z,23.38
2022-10-11T22:16:12.587Z,27.98
2022-10-11T22:19:14.666Z,25.58
2022-10-11T22:22:17.046Z,23.85
2022-10-11T22:25:19.236Z,24.20
2022-10-11T22:28:21.617Z,21.83
2022-10-11T22:31:24.014Z,22.20
2022-10-11T22:34:30.786Z,22.83
2022-10-11T22:37:33.914Z,26.15
2022-10-11T22:40:39.740Z,22.65
2022-10-11T22:43:41.856Z,24.05
2022-10-11T22:46:44.203Z,19.55
2022-10-11T22:49:46.287Z,19.90
2022-10-11T22:52:48.607Z,20.88
2022-10-11T22:55:50.981Z,20.90
2022-10-11T22:58:53.329Z,21.90
2022-10-11T23:01:55.415Z,22.08
2022-10-11T23:04:58.273Z,20.20
2022-10-11T23:08:00.462Z,21.42
2022-10-11T23:11:07.078Z,19.17
2022-10-11T23:14:09.290Z,18.23
2022-10-11T23:17:11.649Z,19.27
2022-10-11T23:20:13.901Z,20.48
2022-10-11T23:23:16.237Z,17.55
2022-10-11T23:26:18.286Z,18.42
2022-10-11T23:29:20.617Z,21.10
2022-10-11T23:32:22.675Z,17.77
2022-10-11T23:35:25.190Z,17.23
2022-10-11T23:38:27.485Z,19.95
2022-10-11T23:41:30.471Z,23.95
2022-10-11T23:44:32.564Z,21.87
2022-10-11T23:47:35.303Z,19.30
2022-10-11T23:50:37.625Z,20.02
2022-10-11T23:53:39.968Z,22.75
2022-10-11T23:56:42.026Z,18.08
2022-10-11T23:59:44.397Z,21.83
